createdAt,value
2018-12-15T00:02:10.404Z,99875.23
2018-12-15T00:04:39.099Z,99882.66
2018-12-15T00:07:07.918Z,99875.75
2018-12-15T00:09:36.966Z,99877.50
2018-12-15T00:12:06.078Z,99887.53
2018-12-15T00:14:35.258Z,99888.36
2018-12-15T00:17:05.822Z,99880.52
2018-12-15T00:19:34.823Z,99875.34
2018-12-15T00:22:04.296Z,99877.64
2018-12-15T00:24:33.368Z,99873.38
2018-12-15T00:27:02.483Z,99873.62
2018-12-15T00:29:31.574Z,99878.42
2018-12-15T00:32:00.925Z,99892.38
2018-12-15T00:34:29.811Z,99890.14
2018-12-15T00:36:58.534Z,99883.92
2018-12-15T00:39:27.561Z,99893.86
2018-12-15T00:41:56.239Z,99889.59
2018-12-15T00:44:25.245Z,99885.85
2018-12-15T00:46:54.444Z,99888.45
2018-12-15T00:49:23.525Z,99891.42
2018-12-15T00:51:52.934Z,99878.98
2018-12-15T00:54:21.926Z,99872.45
2018-12-15T00:56:51.176Z,99877.50
2018-12-15T00:59:26.987Z,99880.94
2018-12-15T01:01:56.191Z,99883.89
2018-12-15T01:04:24.876Z,99876.58
2018-12-15T01:06:53.737Z,99880.11
2018-12-15T01:09:22.742Z,99889.59
2018-12-15T01:11:51.733Z,99887.02
2018-12-15T01:14:24.142Z,99872.14
2018-12-15T01:16:52.978Z,99871.28
2018-12-15T01:19:22.097Z,99877.91
2018-12-15T01:21:50.997Z,99869.19
2018-12-15T01:24:20.092Z,99869.59
2018-12-15T01:26:49.089Z,99883.52
2018-12-15T01:29:17.789Z,99880.01
2018-12-15T01:31:46.558Z,99878.36
2018-12-15T01:34:15.645Z,99872.28
2018-12-15T01:36:44.549Z,99866.20
2018-12-15T01:39:13.752Z,99867.92
2018-12-15T01:41:42.750Z,99873.17
2018-12-15T01:44:11.717Z,99862.80
2018-12-15T01:46:40.732Z,99858.50
2018-12-15T01:49:09.429Z,99852.77
2018-12-15T01:51:38.114Z,99850.22
2018-12-15T01:54:06.992Z,99849.40
2018-12-15T01:56:35.665Z,99846.61
2018-12-15T01:59:08.326Z,99854.03
2018-12-15T02:01:37.448Z,99852.28
2018-12-15T02:04:06.154Z,99845.38
2018-12-15T02:06:35.234Z,99847.65
2018-12-15T02:09:05.042Z,99840.05
2018-12-15T02:11:34.057Z,99840.53
2018-12-15T02:14:03.073Z,99831.91
2018-12-15T02:16:31.777Z,99835.41
2018-12-15T02:19:00.708Z,99833.73
2018-12-15T02:21:31.304Z,99834.97
2018-12-15T02:24:00.336Z,99830.20
2018-12-15T02:26:29.327Z,99835.00
2018-12-15T02:28:58.057Z,99841.05
2018-12-15T02:31:26.762Z,99838.78
2018-12-15T02:33:55.798Z,99835.28
2018-12-15T02:36:24.890Z,99831.39
2018-12-15T02:38:53.594Z,99837.92
2018-12-15T02:41:22.569Z,99841.84
2018-12-15T02:43:51.572Z,99833.97
2018-12-15T02:46:20.271Z,99832.25
2018-12-15T02:48:49.249Z,99835.69
2018-12-15T02:51:18.404Z,99835.69
2018-12-15T02:53:47.387Z,99830.88
2018-12-15T02:56:16.317Z,99815.58
2018-12-15T02:58:48.732Z,99823.97
2018-12-15T03:01:17.688Z,99838.27
2018-12-15T03:03:46.481Z,99839.56
2018-12-15T03:06:15.380Z,99836.10
2018-12-15T03:08:44.457Z,99831.77
2018-12-15T03:11:13.102Z,99842.22
2018-12-15T03:13:42.098Z,99840.02
2018-12-15T03:16:11.152Z,99829.61
2018-12-15T03:18:40.159Z,99837.89
2018-12-15T03:21:12.091Z,99833.11
2018-12-15T03:23:40.879Z,99835.73
2018-12-15T03:26:09.997Z,99834.83
2018-12-15T03:28:38.974Z,99837.89
2018-12-15T03:31:07.922Z,99841.87
2018-12-15T03:33:36.648Z,99839.33
2018-12-15T03:36:05.657Z,99834.11
2018-12-15T03:38:34.737Z,99843.73
2018-12-15T03:41:03.764Z,99850.70
2018-12-15T03:43:32.446Z,99845.10
2018-12-15T03:46:01.614Z,99833.46
2018-12-15T03:48:30.719Z,99836.55
2018-12-15T03:50:59.744Z,99843.01
2018-12-15T03:53:28.475Z,99839.61
2018-12-15T03:55:57.213Z,99843.91
2018-12-15T03:58:26.201Z,99842.59
2018-12-15T04:00:55.183Z,99837.86
2018-12-15T04:03:23.914Z,99840.81
2018-12-15T04:05:52.658Z,99843.05
2018-12-15T04:08:21.447Z,99852.18
2018-12-15T04:10:50.433Z,99850.91
2018-12-15T04:13:19.647Z,99846.92
2018-12-15T04:15:48.725Z,99845.07
2018-12-15T04:18:17.389Z,99855.52
2018-12-15T04:20:46.911Z,99848.09
2018-12-15T04:23:15.677Z,99852.45
2018-12-15T04:25:44.538Z,99852.39
2018-12-15T04:28:13.519Z,99846.75
2018-12-15T04:30:42.428Z,99849.36
2018-12-15T04:33:11.359Z,99848.95
2018-12-15T04:35:40.247Z,99846.89
2018-12-15T04:38:09.363Z,99834.69
2018-12-15T04:40:38.435Z,99841.77
2018-12-15T04:43:07.663Z,99843.91
2018-12-15T04:45:36.658Z,99846.30
2018-12-15T04:48:10.997Z,99837.48
2018-12-15T04:50:36.780Z,99840.05
2018-12-15T04:53:05.737Z,99839.54
2018-12-15T04:55:34.760Z,99832.16
2018-12-15T04:58:03.678Z,99835.17
2018-12-15T05:00:32.546Z,99839.41
2018-12-15T05:03:01.327Z,99838.95
2018-12-15T05:05:30.554Z,99834.94
2018-12-15T05:07:59.475Z,99833.73
2018-12-15T05:10:28.533Z,99840.74
2018-12-15T05:12:57.432Z,99840.81
2018-12-15T05:15:26.241Z,99827.48
2018-12-15T05:17:55.189Z,99829.09
2018-12-15T05:20:24.287Z,99841.22
2018-12-15T05:22:52.993Z,99826.00
2018-12-15T05:25:21.789Z,99828.96
2018-12-15T05:27:50.797Z,99820.68
2018-12-15T05:30:19.508Z,99824.59
2018-12-15T05:32:48.555Z,99831.84
2018-12-15T05:35:17.521Z,99830.12
2018-12-15T05:37:46.229Z,99826.69
2018-12-15T05:40:15.083Z,99828.86
2018-12-15T05:42:44.360Z,99827.45
2018-12-15T05:45:13.589Z,99829.98
2018-12-15T05:47:42.716Z,99833.04
2018-12-15T05:50:12.325Z,99827.82
2018-12-15T05:52:41.325Z,99830.36
2018-12-15T05:55:10.510Z,99832.08
2018-12-15T05:57:39.511Z,99825.31
2018-12-15T06:00:09.021Z,99825.20
2018-12-15T06:02:38.224Z,99819.91
2018-12-15T06:05:07.773Z,99825.47
2018-12-15T06:07:36.820Z,99830.88
2018-12-15T06:10:06.003Z,99829.53
2018-12-15T06:12:34.868Z,99830.33
2018-12-15T06:15:04.611Z,99834.45
2018-12-15T06:17:33.606Z,99836.03
2018-12-15T06:20:02.277Z,99831.00
2018-12-15T06:22:31.389Z,99827.34
2018-12-15T06:25:00.712Z,99826.94
2018-12-15T06:27:29.507Z,99827.45
2018-12-15T06:29:58.330Z,99834.84
2018-12-15T06:32:27.048Z,99829.99
2018-12-15T06:34:56.048Z,99829.13
2018-12-15T06:37:24.749Z,99833.20
2018-12-15T06:39:53.419Z,99836.78
2018-12-15T06:42:22.303Z,99841.59
2018-12-15T06:44:50.978Z,99844.44
2018-12-15T06:47:20.054Z,99848.73
2018-12-15T06:49:49.217Z,99850.03
2018-12-15T06:52:18.272Z,99847.80
2018-12-15T06:54:46.994Z,99853.77
2018-12-15T06:57:16.294Z,99855.52
2018-12-15T06:59:45.270Z,99846.86
2018-12-15T07:02:14.394Z,99837.68
2018-12-15T07:04:43.470Z,99835.89
2018-12-15T07:07:12.651Z,99842.76
2018-12-15T07:09:41.864Z,99850.97
2018-12-15T07:12:11.052Z,99845.30
2018-12-15T07:14:39.782Z,99846.38
2018-12-15T07:17:08.926Z,99851.45
2018-12-15T07:19:37.762Z,99847.09
2018-12-15T07:22:06.570Z,99853.09
2018-12-15T07:24:35.376Z,99852.57
2018-12-15T07:27:04.331Z,99849.95
2018-12-15T07:29:33.083Z,99847.30
2018-12-15T07:32:02.280Z,99842.45
2018-12-15T07:34:31.275Z,99843.42
2018-12-15T07:37:00.040Z,99837.23
2018-12-15T07:39:28.956Z,99837.27
2018-12-15T07:41:58.049Z,99844.20
2018-12-15T07:44:26.959Z,99843.67
2018-12-15T07:46:55.942Z,99848.42
2018-12-15T07:49:24.764Z,99851.85
2018-12-15T07:51:53.544Z,99858.09
2018-12-15T07:54:22.970Z,99855.11
2018-12-15T07:56:52.251Z,99848.00
2018-12-15T07:59:21.349Z,99848.98
2018-12-15T08:01:50.410Z,99858.84
2018-12-15T08:04:19.506Z,99849.69
2018-12-15T08:06:48.230Z,99853.53
2018-12-15T08:09:17.151Z,99851.36
2018-12-15T08:11:51.398Z,99852.27
2018-12-15T08:14:20.475Z,99853.86
2018-12-15T08:16:49.250Z,99854.83
2018-12-15T08:19:18.195Z,99852.47
2018-12-15T08:21:47.128Z,99858.52
2018-12-15T08:24:16.166Z,99861.34
2018-12-15T08:26:44.986Z,99855.91
2018-12-15T08:29:14.589Z,99867.09
2018-12-15T08:31:43.409Z,99867.92
2018-12-15T08:34:12.102Z,99863.95
2018-12-15T08:36:41.248Z,99874.78
2018-12-15T08:39:10.061Z,99866.13
2018-12-15T08:41:39.005Z,99868.73
2018-12-15T08:44:08.008Z,99871.84
2018-12-15T08:46:36.975Z,99869.14
2018-12-15T08:49:06.096Z,99865.63
2018-12-15T08:51:35.085Z,99859.09
2018-12-15T08:54:03.991Z,99867.84
2018-12-15T08:56:32.999Z,99863.02
2018-12-15T08:59:01.966Z,99858.22
2018-12-15T09:01:31.149Z,99856.42
2018-12-15T09:03:59.854Z,99851.52
2018-12-15T09:06:28.775Z,99842.04
2018-12-15T09:08:57.735Z,99843.16
2018-12-15T09:11:26.859Z,99840.28
2018-12-15T09:13:55.732Z,99831.41
2018-12-15T09:16:26.666Z,99825.77
2018-12-15T09:18:55.322Z,99814.61
2018-12-15T09:21:24.304Z,99814.80
2018-12-15T09:23:53.338Z,99814.08
2018-12-15T09:26:22.568Z,99804.34
2018-12-15T09:28:51.747Z,99804.70
2018-12-15T09:31:20.824Z,99800.05
2018-12-15T09:33:49.489Z,99809.62
2018-12-15T09:36:18.545Z,99808.17
2018-12-15T09:38:47.617Z,99806.95
2018-12-15T09:41:16.439Z,99802.09
2018-12-15T09:43:45.373Z,99800.95
2018-12-15T09:46:14.168Z,99803.57
2018-12-15T09:48:43.123Z,99792.11
2018-12-15T09:51:11.815Z,99787.37
2018-12-15T09:53:40.647Z,99795.95
2018-12-15T09:56:09.958Z,99793.88
2018-12-15T09:58:39.027Z,99793.32
2018-12-15T10:01:07.734Z,99786.15
2018-12-15T10:03:36.670Z,99783.58
2018-12-15T10:06:05.375Z,99782.31
2018-12-15T10:08:34.486Z,99776.48
2018-12-15T10:11:04.011Z,99776.48
2018-12-15T10:13:32.714Z,99777.11
2018-12-15T10:16:01.779Z,99768.89
2018-12-15T10:18:36.414Z,99760.19
2018-12-15T10:21:05.476Z,99761.40
2018-12-15T10:23:34.600Z,99770.11
2018-12-15T10:26:03.432Z,99765.94
2018-12-15T10:28:32.420Z,99768.79
2018-12-15T10:31:06.611Z,99760.94
2018-12-15T10:33:35.354Z,99755.70
2018-12-15T10:36:04.313Z,99754.75
2018-12-15T10:38:33.269Z,99753.19
2018-12-15T10:41:02.004Z,99743.92
2018-12-15T10:43:31.047Z,99738.59
2018-12-15T10:46:00.150Z,99734.15
2018-12-15T10:48:29.239Z,99739.14
2018-12-15T10:50:58.040Z,99729.86
2018-12-15T10:53:26.771Z,99719.09
2018-12-15T10:55:55.704Z,99717.38
2018-12-15T10:58:25.246Z,99722.31
2018-12-15T11:00:57.379Z,99724.48
2018-12-15T11:03:26.454Z,99725.05
2018-12-15T11:05:55.871Z,99722.67
2018-12-15T11:08:25.231Z,99725.95
2018-12-15T11:10:54.396Z,99721.92
2018-12-15T11:13:23.451Z,99716.23
2018-12-15T11:15:52.364Z,99721.88
2018-12-15T11:18:21.061Z,99728.42
2018-12-15T11:20:50.058Z,99723.23
2018-12-15T11:23:18.806Z,99720.12
2018-12-15T11:25:54.312Z,99716.69
2018-12-15T11:28:23.269Z,99704.77
2018-12-15T11:30:52.058Z,99702.53
2018-12-15T11:33:21.065Z,99691.72
2018-12-15T11:35:49.976Z,99684.87
2018-12-15T11:38:18.701Z,99686.42
2018-12-15T11:40:47.463Z,99704.05
2018-12-15T11:43:16.415Z,99707.53
2018-12-15T11:45:45.093Z,99695.72
2018-12-15T11:48:13.915Z,99680.16
2018-12-15T11:50:43.191Z,99694.50
2018-12-15T11:53:12.288Z,99697.57
2018-12-15T11:55:41.198Z,99694.09
2018-12-15T11:58:10.183Z,99695.36
2018-12-15T12:00:39.693Z,99706.23
2018-12-15T12:03:08.675Z,99710.37
2018-12-15T12:05:37.521Z,99701.25
2018-12-15T12:08:06.249Z,99698.68
2018-12-15T12:10:35.350Z,99701.09
2018-12-15T12:13:04.403Z,99703.02
2018-12-15T12:15:33.534Z,99691.51
2018-12-15T12:18:02.543Z,99684.89
2018-12-15T12:20:34.067Z,99679.27
2018-12-15T12:23:03.532Z,99678.73
2018-12-15T12:25:32.696Z,99673.53
2018-12-15T12:28:01.702Z,99676.55
2018-12-15T12:30:30.795Z,99668.39
2018-12-15T12:32:59.734Z,99673.98
2018-12-15T12:35:28.657Z,99671.45
2018-12-15T12:37:57.669Z,99666.59
2018-12-15T12:40:26.393Z,99670.38
2018-12-15T12:42:55.232Z,99666.89
2018-12-15T12:45:24.231Z,99666.67
2018-12-15T12:47:53.034Z,99664.13
2018-12-15T12:50:22.014Z,99671.97
2018-12-15T12:52:50.967Z,99672.28
2018-12-15T12:55:19.754Z,99669.56
2018-12-15T12:57:48.695Z,99663.42
2018-12-15T13:00:17.833Z,99666.74
2018-12-15T13:02:46.762Z,99664.05
2018-12-15T13:05:16.030Z,99661.33
2018-12-15T13:07:45.066Z,99664.45
2018-12-15T13:10:14.141Z,99658.77
2018-12-15T13:12:43.210Z,99648.96
2018-12-15T13:15:12.350Z,99645.26
2018-12-15T13:17:41.568Z,99637.27
2018-12-15T13:20:10.783Z,99641.03
2018-12-15T13:22:40.535Z,99635.69
2018-12-15T13:25:09.764Z,99634.78
2018-12-15T13:27:38.707Z,99626.70
2018-12-15T13:30:09.018Z,99624.81
2018-12-15T13:32:37.808Z,99618.48
2018-12-15T13:35:06.934Z,99609.95
2018-12-15T13:37:35.867Z,99612.57
2018-12-15T13:40:05.099Z,99617.08
2018-12-15T13:42:33.881Z,99621.16
2018-12-15T13:45:02.655Z,99625.34
2018-12-15T13:47:31.907Z,99622.72
2018-12-15T13:50:00.842Z,99628.01
2018-12-15T13:52:29.595Z,99635.41
2018-12-15T13:54:58.602Z,99640.55
2018-12-15T13:57:27.710Z,99649.31
2018-12-15T13:59:56.414Z,99644.13
2018-12-15T14:02:25.178Z,99641.20
2018-12-15T14:04:54.271Z,99638.64
2018-12-15T14:07:23.223Z,99643.42
2018-12-15T14:09:52.464Z,99639.11
2018-12-15T14:12:21.179Z,99639.95
2018-12-15T14:14:50.242Z,99638.52
2018-12-15T14:17:19.454Z,99640.20
2018-12-15T14:19:48.459Z,99651.37
2018-12-15T14:22:17.426Z,99653.62
2018-12-15T14:24:46.567Z,99646.90
2018-12-15T14:27:15.574Z,99655.84
2018-12-15T14:29:44.430Z,99647.88
2018-12-15T14:32:13.507Z,99650.02
2018-12-15T14:34:42.514Z,99643.77
2018-12-15T14:37:11.487Z,99633.00
2018-12-15T14:39:40.114Z,99623.20
2018-12-15T14:42:09.143Z,99639.99
2018-12-15T14:44:38.378Z,99640.80
2018-12-15T14:47:07.675Z,99639.56
2018-12-15T14:49:36.566Z,99647.48
2018-12-15T14:52:05.566Z,99655.33
2018-12-15T14:54:34.654Z,99648.94
2018-12-15T14:57:03.395Z,99656.29
2018-12-15T14:59:32.126Z,99653.45
2018-12-15T15:02:00.786Z,99657.78
2018-12-15T15:04:29.757Z,99659.27
2018-12-15T15:06:58.625Z,99658.76
2018-12-15T15:09:27.302Z,99647.80
2018-12-15T15:11:56.374Z,99651.13
2018-12-15T15:14:25.577Z,99648.51
2018-12-15T15:16:54.293Z,99641.38
2018-12-15T15:19:22.966Z,99639.16
2018-12-15T15:21:51.620Z,99630.33
2018-12-15T15:24:20.635Z,99626.45
2018-12-15T15:26:49.849Z,99631.77
2018-12-15T15:29:18.830Z,99637.45
2018-12-15T15:31:47.516Z,99645.52
2018-12-15T15:34:16.590Z,99637.02
2018-12-15T15:36:45.234Z,99636.17
2018-12-15T15:39:13.959Z,99630.42
2018-12-15T15:41:42.771Z,99633.39
2018-12-15T15:44:11.862Z,99630.70
2018-12-15T15:46:40.555Z,99637.59
2018-12-15T15:49:09.537Z,99648.05
2018-12-15T15:51:41.798Z,99643.47
2018-12-15T15:54:10.902Z,99638.63
2018-12-15T15:56:39.565Z,99635.31
2018-12-15T15:59:08.245Z,99631.12
2018-12-15T16:01:37.490Z,99630.61
2018-12-15T16:04:06.366Z,99627.03
2018-12-15T16:06:35.038Z,99640.13
2018-12-15T16:09:05.698Z,99644.10
2018-12-15T16:11:34.584Z,99635.69
2018-12-15T16:14:03.535Z,99645.26
2018-12-15T16:16:37.217Z,99647.88
2018-12-15T16:19:06.424Z,99643.04
2018-12-15T16:21:35.213Z,99632.27
2018-12-15T16:24:04.263Z,99628.84
2018-12-15T16:26:33.466Z,99618.82
2018-12-15T16:29:02.195Z,99610.81
2018-12-15T16:31:31.014Z,99614.33
2018-12-15T16:34:00.286Z,99616.45
2018-12-15T16:36:29.227Z,99618.61
2018-12-15T16:38:57.899Z,99628.69
2018-12-15T16:41:26.992Z,99639.67
2018-12-15T16:43:56.203Z,99632.77
2018-12-15T16:46:25.206Z,99631.41
2018-12-15T16:48:53.953Z,99622.30
2018-12-15T16:51:23.093Z,99622.70
2018-12-15T16:53:51.794Z,99625.29
2018-12-15T16:56:21.977Z,99621.87
2018-12-15T16:58:51.109Z,99610.22
2018-12-15T17:01:19.771Z,99609.17
2018-12-15T17:03:48.766Z,99611.05
2018-12-15T17:06:17.818Z,99616.77
2018-12-15T17:08:46.750Z,99619.19
2018-12-15T17:11:15.763Z,99623.71
2018-12-15T17:13:44.635Z,99624.75
2018-12-15T17:16:13.319Z,99629.70
2018-12-15T17:18:42.119Z,99625.05
2018-12-15T17:21:11.223Z,99623.30
2018-12-15T17:23:39.902Z,99624.92
2018-12-15T17:26:08.900Z,99622.06
2018-12-15T17:28:40.564Z,99627.59
2018-12-15T17:31:09.516Z,99642.84
2018-12-15T17:33:38.503Z,99643.33
2018-12-15T17:36:07.425Z,99647.08
2018-12-15T17:38:36.530Z,99646.95
2018-12-15T17:41:05.931Z,99651.23
2018-12-15T17:43:34.635Z,99652.85
2018-12-15T17:46:03.303Z,99656.20
2018-12-15T17:48:32.400Z,99651.23
2018-12-15T17:51:03.395Z,99628.53
2018-12-15T17:53:32.350Z,99624.48
2018-12-15T17:56:01.316Z,99631.33
2018-12-15T17:58:30.415Z,99645.45
2018-12-15T18:00:59.119Z,99636.92
2018-12-15T18:03:28.066Z,99619.34
2018-12-15T18:05:57.077Z,99623.08
2018-12-15T18:08:28.789Z,99615.27
2018-12-15T18:10:57.844Z,99624.38
2018-12-15T18:13:26.820Z,99616.42
2018-12-15T18:15:55.474Z,99615.84
2018-12-15T18:18:24.613Z,99621.36
2018-12-15T18:20:53.601Z,99613.45
2018-12-15T18:23:22.306Z,99602.77
2018-12-15T18:25:51.308Z,99611.94
2018-12-15T18:28:20.491Z,99606.05
2018-12-15T18:30:49.933Z,99610.50
2018-12-15T18:33:19.413Z,99626.50
2018-12-15T18:35:48.226Z,99618.91
2018-12-15T18:38:17.191Z,99622.72
2018-12-15T18:40:46.284Z,99623.08
2018-12-15T18:43:15.270Z,99609.98
2018-12-15T18:45:44.374Z,99623.24
2018-12-15T18:48:13.347Z,99634.66
2018-12-15T18:50:42.455Z,99614.20
2018-12-15T18:53:11.356Z,99608.72
2018-12-15T18:55:40.439Z,99606.96
2018-12-15T18:58:12.506Z,99608.67
2018-12-15T19:00:41.569Z,99616.77
2018-12-15T19:03:10.257Z,99617.16
2018-12-15T19:05:39.682Z,99606.69
2018-12-15T19:08:08.360Z,99612.59
2018-12-15T19:10:37.488Z,99622.57
2018-12-15T19:13:06.236Z,99614.72
2018-12-15T19:15:35.160Z,99600.66
2018-12-15T19:18:04.240Z,99612.20
2018-12-15T19:20:33.242Z,99619.14
2018-12-15T19:23:02.374Z,99621.16
2018-12-15T19:25:31.439Z,99609.25
2018-12-15T19:28:00.456Z,99608.52
2018-12-15T19:30:29.254Z,99598.92
2018-12-15T19:32:57.995Z,99613.05
2018-12-15T19:35:26.663Z,99614.56
2018-12-15T19:37:55.345Z,99618.41
2018-12-15T19:40:24.316Z,99612.80
2018-12-15T19:42:53.033Z,99614.99
2018-12-15T19:45:21.665Z,99615.57
2018-12-15T19:47:50.739Z,99612.05
2018-12-15T19:50:19.549Z,99601.85
2018-12-15T19:52:48.617Z,99609.98
2018-12-15T19:55:17.326Z,99596.33
2018-12-15T19:57:46.051Z,99593.77
2018-12-15T20:00:14.881Z,99592.45
2018-12-15T20:02:43.547Z,99590.70
2018-12-15T20:05:12.665Z,99593.87
2018-12-15T20:07:41.674Z,99594.39
2018-12-15T20:10:10.468Z,99585.96
2018-12-15T20:12:39.554Z,99580.12
2018-12-15T20:15:08.386Z,99580.84
2018-12-15T20:17:37.335Z,99585.51
2018-12-15T20:20:06.682Z,99586.72
2018-12-15T20:22:35.754Z,99584.88
2018-12-15T20:25:04.901Z,99584.90
2018-12-15T20:27:34.532Z,99593.16
2018-12-15T20:30:03.626Z,99598.95
2018-12-15T20:32:32.567Z,99603.55
2018-12-15T20:35:01.868Z,99588.18
2018-12-15T20:37:30.752Z,99591.25
2018-12-15T20:39:59.707Z,99598.20
2018-12-15T20:42:28.591Z,99600.87
2018-12-15T20:44:57.437Z,99591.66
2018-12-15T20:47:27.950Z,99597.84
2018-12-15T20:49:57.313Z,99581.18
2018-12-15T20:52:26.318Z,99576.29
2018-12-15T20:54:55.507Z,99579.66
2018-12-15T20:57:24.410Z,99574.87
2018-12-15T20:59:54.216Z,99562.62
2018-12-15T21:02:22.905Z,99554.09
2018-12-15T21:04:52.303Z,99551.34
2018-12-15T21:07:21.373Z,99553.69
2018-12-15T21:09:50.499Z,99562.45
2018-12-15T21:12:19.492Z,99569.65
2018-12-15T21:14:49.216Z,99563.48
2018-12-15T21:17:18.198Z,99572.80
2018-12-15T21:19:47.949Z,99563.96
2018-12-15T21:22:23.749Z,99554.52
2018-12-15T21:24:52.663Z,99559.95
2018-12-15T21:27:21.507Z,99565.99
2018-12-15T21:29:50.208Z,99552.88
2018-12-15T21:32:19.328Z,99556.98
2018-12-15T21:34:48.425Z,99557.44
2018-12-15T21:37:17.618Z,99559.30
2018-12-15T21:39:46.615Z,99564.04
2018-12-15T21:42:15.606Z,99554.59
2018-12-15T21:44:44.699Z,99554.48
2018-12-15T21:47:13.808Z,99552.16
2018-12-15T21:49:42.571Z,99550.33
2018-12-15T21:52:11.345Z,99554.66
2018-12-15T21:54:40.370Z,99554.26
2018-12-15T21:57:09.459Z,99548.00
2018-12-15T21:59:38.415Z,99551.53
2018-12-15T22:02:07.461Z,99548.45
2018-12-15T22:04:36.159Z,99551.87
2018-12-15T22:07:05.237Z,99555.80
2018-12-15T22:09:34.192Z,99554.95
2018-12-15T22:12:03.114Z,99554.50
2018-12-15T22:14:32.105Z,99540.20
2018-12-15T22:17:01.172Z,99547.77
2018-12-15T22:19:30.425Z,99558.92
2018-12-15T22:22:03.015Z,99554.94
2018-12-15T22:24:30.805Z,99542.20
2018-12-15T22:26:59.606Z,99544.71
2018-12-15T22:29:28.339Z,99541.91
2018-12-15T22:31:57.309Z,99536.73
2018-12-15T22:34:26.517Z,99535.07
2018-12-15T22:36:55.502Z,99543.33
2018-12-15T22:39:24.271Z,99539.80
2018-12-15T22:41:53.119Z,99540.60
2018-12-15T22:44:21.807Z,99545.20
2018-12-15T22:46:50.965Z,99538.31
2018-12-15T22:49:19.632Z,99535.80
2018-12-15T22:51:49.366Z,99534.33
2018-12-15T22:54:18.365Z,99535.76
2018-12-15T22:56:47.058Z,99515.95
2018-12-15T22:59:16.087Z,99514.47
2018-12-15T23:01:47.287Z,99517.56
2018-12-15T23:04:16.451Z,99509.23
2018-12-15T23:06:45.468Z,99510.25
2018-12-15T23:09:14.244Z,99516.41
2018-12-15T23:11:43.584Z,99515.21
2018-12-15T23:14:12.566Z,99520.34
2018-12-15T23:16:41.762Z,99521.47
2018-12-15T23:19:10.861Z,99522.22
2018-12-15T23:21:40.052Z,99522.27
2018-12-15T23:24:08.907Z,99519.66
2018-12-15T23:26:37.543Z,99515.21
2018-12-15T23:29:07.055Z,99506.95
2018-12-15T23:31:35.893Z,99502.73
2018-12-15T23:34:05.009Z,99507.30
2018-12-15T23:36:33.977Z,99501.94
2018-12-15T23:39:03.550Z,99499.09
2018-12-15T23:41:32.203Z,99490.66
2018-12-15T23:44:01.199Z,99493.67
2018-12-15T23:46:30.311Z,99492.05
2018-12-15T23:48:59.306Z,99497.79
2018-12-15T23:51:27.969Z,99497.55
2018-12-15T23:53:57.010Z,99494.27
2018-12-15T23:56:26.066Z,99500.81
2018-12-15T23:58:55.173Z,99500.20
